sensor_id;sensor_type;location;lat;lon;timestamp;pressure;altitude;pressure_sealevel;temperature;humidity
57799;BME280;43626;53.866;30.298;2023-11-18T00:01:12;1029.6;;;0.2;53.6
57799;BME280;43626;53.866;30.298;2023-11-18T00:06:12;1029.6;;;0.1;53.2
57799;BME280;43626;53.866;30.298;2023-11-18T00:11:02;1029.6;;;-0.1;53.2
57799;BME280;43626;53.866;30.298;2023-11-18T00:16:12;1029.7;;;-0.1;53.6
57799;BME280;43626;53.866;30.298;2023-11-18T00:20:56;1029.8;;;-0.1;53.5
57799;BME280;43626;53.866;30.298;2023-11-18T00:26:02;1029.8;;;-0.1;53.6
57799;BME280;43626;53.866;30.298;2023-11-18T00:30:46;1029.8;;;-0.1;53.5
57799;BME280;43626;53.866;30.298;2023-11-18T00:35:38;1029.9;;;-0.2;53.5
57799;BME280;43626;53.866;30.298;2023-11-18T00:40:36;1029.9;;;-0.2;53.4
57799;BME280;43626;53.866;30.298;2023-11-18T00:45:46;1029.9;;;-0.3;53.5
57799;BME280;43626;53.866;30.298;2023-11-18T00:51:12;1029.9;;;-0.3;53.4
57799;BME280;43626;53.866;30.298;2023-11-18T00:56:13;1030;;;-0.3;53.1
57799;BME280;43626;53.866;30.298;2023-11-18T01:00:58;1030;;;-0.3;53.2
57799;BME280;43626;53.866;30.298;2023-11-18T01:06:12;1030;;;-0.2;53.1
57799;BME280;43626;53.866;30.298;2023-11-18T01:10:54;1030;;;-0.3;52.5
57799;BME280;43626;53.866;30.298;2023-11-18T01:16:00;1030;;;-0.5;52.7
57799;BME280;43626;53.866;30.298;2023-11-18T01:20:48;1030.1;;;-0.5;53.1
57799;BME280;43626;53.866;30.298;2023-11-18T01:25:52;1030.1;;;-0.5;53.4
57799;BME280;43626;53.866;30.298;2023-11-18T01:30:36;1030.1;;;-0.5;53.4
57799;BME280;43626;53.866;30.298;2023-11-18T01:35:36;1030.2;;;-0.5;53.3
57799;BME280;43626;53.866;30.298;2023-11-18T01:41:12;1030.2;;;-0.4;53.2
57799;BME280;43626;53.866;30.298;2023-11-18T01:46:15;1030.2;;;-0.3;53.2
57799;BME280;43626;53.866;30.298;2023-11-18T01:51:02;1030.2;;;-0.3;52.9
57799;BME280;43626;53.866;30.298;2023-11-18T01:56:14;1030.1;;;-0.5;52.4
57799;BME280;43626;53.866;30.298;2023-11-18T02:00:56;1030.1;;;-0.6;52.9
57799;BME280;43626;53.866;30.298;2023-11-18T02:06:02;1030.1;;;-0.5;52.6
57799;BME280;43626;53.866;30.298;2023-11-18T02:10:36;1030.1;;;-0.6;52.6
57799;BME280;43626;53.866;30.298;2023-11-18T02:15:55;1030.2;;;-0.5;52.7
57799;BME280;43626;53.866;30.298;2023-11-18T02:20:48;1030.1;;;-0.5;52.4
57799;BME280;43626;53.866;30.298;2023-11-18T02:25:48;1030.2;;;-0.5;52.6
57799;BME280;43626;53.866;30.298;2023-11-18T02:31:13;1030.2;;;-0.5;52.7
57799;BME280;43626;53.866;30.298;2023-11-18T02:36:13;1030.2;;;-0.4;52.6
57799;BME280;43626;53.866;30.298;2023-11-18T02:41:14;1030.2;;;-0.5;52.5
57799;BME280;43626;53.866;30.298;2023-11-18T02:46:14;1030.2;;;-0.6;52.6
57799;BME280;43626;53.866;30.298;2023-11-18T02:50:36;1030.2;;;-0.6;52.7
57799;BME280;43626;53.866;30.298;2023-11-18T02:56:14;1030.2;;;-0.5;52.6
57799;BME280;43626;53.866;30.298;2023-11-18T03:00:36;1030.3;;;-0.5;52.2
57799;BME280;43626;53.866;30.298;2023-11-18T03:05:38;1030.2;;;-0.6;52.3
57799;BME280;43626;53.866;30.298;2023-11-18T03:10:36;1030.2;;;-0.6;52.7
57799;BME280;43626;53.866;30.298;2023-11-18T03:15:38;1030.2;;;-0.6;52.5
57799;BME280;43626;53.866;30.298;2023-11-18T03:20:54;1030.3;;;-0.7;52.7
57799;BME280;43626;53.866;30.298;2023-11-18T03:25:54;1030.3;;;-0.8;53
57799;BME280;43626;53.866;30.298;2023-11-18T03:31:14;1030.3;;;-0.9;53.1
57799;BME280;43626;53.866;30.298;2023-11-18T03:36:14;1030.3;;;-0.9;53.2
57799;BME280;43626;53.866;30.298;2023-11-18T03:40:36;1030.3;;;-1;53.3
57799;BME280;43626;53.866;30.298;2023-11-18T03:46:14;1030.3;;;-1;53.5
57799;BME280;43626;53.866;30.298;2023-11-18T03:50:38;1030.3;;;-1;53.6
57799;BME280;43626;53.866;30.298;2023-11-18T03:55:38;1030.3;;;-1;53.9
57799;BME280;43626;53.866;30.298;2023-11-18T04:00:44;1030.3;;;-1;53.7
57799;BME280;43626;53.866;30.298;2023-11-18T04:05:46;1030.3;;;-1;53.9
57799;BME280;43626;53.866;30.298;2023-11-18T04:10:54;1030.3;;;-1;54.1
57799;BME280;43626;53.866;30.298;2023-11-18T04:15:52;1030.3;;;-0.9;54.2
57799;BME280;43626;53.866;30.298;2023-11-18T04:21:11;1030.3;;;-0.8;54
57799;BME280;43626;53.866;30.298;2023-11-18T04:26:14;1030.3;;;-0.6;53.8
57799;BME280;43626;53.866;30.298;2023-11-18T04:30:56;1030.3;;;-0.6;53.7
57799;BME280;43626;53.866;30.298;2023-11-18T04:36:12;1030.4;;;-0.6;53.7
57799;BME280;43626;53.866;30.298;2023-11-18T04:40:38;1030.3;;;-0.6;53.8
57799;BME280;43626;53.866;30.298;2023-11-18T04:46:02;1030.4;;;-0.6;53.8
57799;BME280;43626;53.866;30.298;2023-11-18T04:50:54;1030.4;;;-0.7;54
57799;BME280;43626;53.866;30.298;2023-11-18T04:55:46;1030.4;;;-0.6;54.1
57799;BME280;43626;53.866;30.298;2023-11-18T05:00:52;1030.3;;;-0.6;54.3
57799;BME280;43626;53.866;30.298;2023-11-18T05:05:46;1030.3;;;-0.5;54.2
57799;BME280;43626;53.866;30.298;2023-11-18T05:11:14;1030.4;;;-0.6;54.4
57799;BME280;43626;53.866;30.298;2023-11-18T05:16:14;1030.4;;;-0.5;54.3
57799;BME280;43626;53.866;30.298;2023-11-18T05:21:03;1030.4;;;-0.5;54.4
57799;BME280;43626;53.866;30.298;2023-11-18T05:26:14;1030.5;;;-0.4;54.4
57799;BME280;43626;53.866;30.298;2023-11-18T05:30:40;1030.6;;;-0.3;54.4
57799;BME280;43626;53.866;30.298;2023-11-18T05:35:36;1030.6;;;-0.2;54.3
57799;BME280;43626;53.866;30.298;2023-11-18T05:40:42;1030.7;;;-0.3;54.3
57799;BME280;43626;53.866;30.298;2023-11-18T05:45:48;1030.7;;;-0.3;54.2
57799;BME280;43626;53.866;30.298;2023-11-18T05:50:54;1030.7;;;-0.6;54.6
57799;BME280;43626;53.866;30.298;2023-11-18T05:55:54;1030.8;;;-0.7;55.1
57799;BME280;43626;53.866;30.298;2023-11-18T06:01:14;1030.8;;;-0.6;55.1
57799;BME280;43626;53.866;30.298;2023-11-18T06:06:15;1030.8;;;-0.5;54.8
57799;BME280;43626;53.866;30.298;2023-11-18T06:10:36;1030.8;;;-0.5;55.1
57799;BME280;43626;53.866;30.298;2023-11-18T06:16:00;1030.8;;;-0.4;55
57799;BME280;43626;53.866;30.298;2023-11-18T06:20:36;1030.8;;;-0.3;54.9
57799;BME280;43626;53.866;30.298;2023-11-18T06:25:54;1030.8;;;-0.3;54.9
57799;BME280;43626;53.866;30.298;2023-11-18T06:31:12;1030.8;;;-0.2;54.9
57799;BME280;43626;53.866;30.298;2023-11-18T06:35:44;1030.8;;;-0.2;54.8
57799;BME280;43626;53.866;30.298;2023-11-18T06:40:58;1030.8;;;0;54.6
57799;BME280;43626;53.866;30.298;2023-11-18T06:45:54;1030.8;;;0;54.6
57799;BME280;43626;53.866;30.298;2023-11-18T06:51:14;1030.8;;;-0.1;54.8
57799;BME280;43626;53.866;30.298;2023-11-18T06:56:14;1030.9;;;-0.2;55.1
57799;BME280;43626;53.866;30.298;2023-11-18T07:00:56;1030.9;;;-0.1;55
57799;BME280;43626;53.866;30.298;2023-11-18T07:06:12;1030.9;;;-0.2;55
57799;BME280;43626;53.866;30.298;2023-11-18T07:10:36;1030.9;;;-0.2;55.1
57799;BME280;43626;53.866;30.298;2023-11-18T07:15:52;1031;;;-0.1;55.2
57799;BME280;43626;53.866;30.298;2023-11-18T07:21:12;1031;;;0;55.2
57799;BME280;43626;53.866;30.298;2023-11-18T07:25:48;1031;;;0.2;54.9
57799;BME280;43626;53.866;30.298;2023-11-18T07:30:52;1031.1;;;0.4;54.7
57799;BME280;43626;53.866;30.298;2023-11-18T07:35:54;1031.1;;;0.5;54.2
57799;BME280;43626;53.866;30.298;2023-11-18T07:41:14;1031;;;0.5;54.3
57799;BME280;43626;53.866;30.298;2023-11-18T07:46:14;1031.1;;;0.5;54.5
57799;BME280;43626;53.866;30.298;2023-11-18T07:50:42;1031.1;;;0.7;54.4
57799;BME280;43626;53.866;30.298;2023-11-18T07:56:14;1031.1;;;0.9;54.1
57799;BME280;43626;53.866;30.298;2023-11-18T08:00:38;1031.2;;;1;54.1
57799;BME280;43626;53.866;30.298;2023-11-18T08:05:38;1031.2;;;1;54
57799;BME280;43626;53.866;30.298;2023-11-18T08:10:52;1031.3;;;1;53.9
57799;BME280;43626;53.866;30.298;2023-11-18T08:15:48;1031.3;;;1.1;53.6
57799;BME280;43626;53.866;30.298;2023-11-18T08:21:14;1031.4;;;1.1;53.5
57799;BME280;43626;53.866;30.298;2023-11-18T08:25:52;1031.3;;;0.8;54
57799;BME280;43626;53.866;30.298;2023-11-18T08:31:14;1031.4;;;0.7;54.3
57799;BME280;43626;53.866;30.298;2023-11-18T08:36:14;1031.4;;;0.6;54.8
57799;BME280;43626;53.866;30.298;2023-11-18T08:40:36;1031.4;;;0.6;55
57799;BME280;43626;53.866;30.298;2023-11-18T08:46:04;1031.4;;;0.6;55
57799;BME280;43626;53.866;30.298;2023-11-18T08:50:46;1031.4;;;0.7;55
57799;BME280;43626;53.866;30.298;2023-11-18T08:55:36;1031.4;;;0.9;54.9
57799;BME280;43626;53.866;30.298;2023-11-18T09:00:53;1031.3;;;1;54.8
57799;BME280;43626;53.866;30.298;2023-11-18T09:05:45;1031.3;;;1.1;54.6
57799;BME280;43626;53.866;30.298;2023-11-18T09:10:55;1031.3;;;1.1;54.7
57799;BME280;43626;53.866;30.298;2023-11-18T09:15:55;1031.4;;;1.1;54.5
57799;BME280;43626;53.866;30.298;2023-11-18T09:21:14;1031.4;;;1.2;54.5
57799;BME280;43626;53.866;30.298;2023-11-18T09:26:14;1031.5;;;1.3;54.1
57799;BME280;43626;53.866;30.298;2023-11-18T09:30:36;1031.5;;;1.4;54.1
57799;BME280;43626;53.866;30.298;2023-11-18T09:36:14;1031.5;;;1.5;53.9
57799;BME280;43626;53.866;30.298;2023-11-18T09:40:36;1031.4;;;1.6;53.6
57799;BME280;43626;53.866;30.298;2023-11-18T09:46:03;1031.4;;;1.7;53.9
57799;BME280;43626;53.866;30.298;2023-11-18T09:51:02;1031.4;;;1.6;53.9
57799;BME280;43626;53.866;30.298;2023-11-18T09:55:49;1031.5;;;1.7;53.8
57799;BME280;43626;53.866;30.298;2023-11-18T10:00:53;1031.5;;;1.8;53.9
57799;BME280;43626;53.866;30.298;2023-11-18T10:05:54;1031.5;;;1.8;53.8
57799;BME280;43626;53.866;30.298;2023-11-18T10:11:14;1031.4;;;1.8;53.3
57799;BME280;43626;53.866;30.298;2023-11-18T10:16:14;1031.3;;;1.8;53.1
57799;BME280;43626;53.866;30.298;2023-11-18T10:20:56;1031.4;;;1.8;53.3
57799;BME280;43626;53.866;30.298;2023-11-18T10:26:12;1031.4;;;1.8;53.1
57799;BME280;43626;53.866;30.298;2023-11-18T10:30:47;1031.4;;;1.8;53.1
57799;BME280;43626;53.866;30.298;2023-11-18T10:35:36;1031.5;;;1.8;53.2
57799;BME280;43626;53.866;30.298;2023-11-18T10:40:55;1031.5;;;1.8;53.3
57799;BME280;43626;53.866;30.298;2023-11-18T10:45:36;1031.5;;;1.8;53.1
57799;BME280;43626;53.866;30.298;2023-11-18T10:50:54;1031.5;;;1.8;53.2
57799;BME280;43626;53.866;30.298;2023-11-18T10:55:52;1031.5;;;1.9;53.2
57799;BME280;43626;53.866;30.298;2023-11-18T11:01:14;1031.4;;;1.9;53
57799;BME280;43626;53.866;30.298;2023-11-18T11:06:15;1031.4;;;1.8;53
57799;BME280;43626;53.866;30.298;2023-11-18T11:10:56;1031.5;;;1.8;52.8
57799;BME280;43626;53.866;30.298;2023-11-18T11:16:14;1031.5;;;1.9;52.6
57799;BME280;43626;53.866;30.298;2023-11-18T11:21:07;1031.5;;;1.9;52.4
57799;BME280;43626;53.866;30.298;2023-11-18T11:25:59;1031.4;;;2;52.4
57799;BME280;43626;53.866;30.298;2023-11-18T11:31:16;1031.4;;;2.1;52.1
57799;BME280;43626;53.866;30.298;2023-11-18T11:35:49;1031.5;;;2;52.3
57799;BME280;43626;53.866;30.298;2023-11-18T11:40:53;1031.5;;;1.9;52.6
57799;BME280;43626;53.866;30.298;2023-11-18T11:45:52;1031.5;;;2;52.5
57799;BME280;43626;53.866;30.298;2023-11-18T11:51:18;1031.5;;;1.9;52.4
57799;BME280;43626;53.866;30.298;2023-11-18T11:56:14;1031.5;;;1.8;52.4
57799;BME280;43626;53.866;30.298;2023-11-18T12:01:15;1031.5;;;1.8;52.7
57799;BME280;43626;53.866;30.298;2023-11-18T12:05:36;1031.5;;;1.9;52.4
57799;BME280;43626;53.866;30.298;2023-11-18T12:10:38;1031.5;;;1.9;52
57799;BME280;43626;53.866;30.298;2023-11-18T12:15:52;1031.5;;;1.8;51.8
57799;BME280;43626;53.866;30.298;2023-11-18T12:21:19;1031.5;;;1.8;51.6
57799;BME280;43626;53.866;30.298;2023-11-18T12:25:38;1031.5;;;1.8;51.4
57799;BME280;43626;53.866;30.298;2023-11-18T12:30:38;1031.6;;;1.8;51.1
57799;BME280;43626;53.866;30.298;2023-11-18T12:35:51;1031.6;;;1.9;51.4
57799;BME280;43626;53.866;30.298;2023-11-18T12:40:51;1031.6;;;1.9;51.4
57799;BME280;43626;53.866;30.298;2023-11-18T12:46:11;1031.7;;;1.8;51.2
57799;BME280;43626;53.866;30.298;2023-11-18T12:50:56;1031.6;;;1.6;51.3
57799;BME280;43626;53.866;30.298;2023-11-18T12:55:36;1031.6;;;1.6;51.4
57799;BME280;43626;53.866;30.298;2023-11-18T13:00:39;1031.6;;;1.6;51.2
57799;BME280;43626;53.866;30.298;2023-11-18T13:05:54;1031.6;;;1.6;51
57799;BME280;43626;53.866;30.298;2023-11-18T13:11:14;1031.7;;;1.6;50.8
57799;BME280;43626;53.866;30.298;2023-11-18T13:15:46;1031.7;;;1.4;50.7
57799;BME280;43626;53.866;30.298;2023-11-18T13:20:53;1031.7;;;1.4;51.2
57799;BME280;43626;53.866;30.298;2023-11-18T13:25:55;1031.7;;;1.6;51
57799;BME280;43626;53.866;30.298;2023-11-18T13:30:42;1031.7;;;1.6;50.8
57799;BME280;43626;53.866;30.298;2023-11-18T13:36:12;1031.8;;;1.6;51
57799;BME280;43626;53.866;30.298;2023-11-18T13:40:56;1031.9;;;1.6;51
57799;BME280;43626;53.866;30.298;2023-11-18T13:45:49;1031.9;;;1.6;51.2
57799;BME280;43626;53.866;30.298;2023-11-18T13:50:42;1031.8;;;1.5;51.2
57799;BME280;43626;53.866;30.298;2023-11-18T13:55:56;1031.9;;;1.6;51.3
57799;BME280;43626;53.866;30.298;2023-11-18T14:01:12;1031.9;;;1.6;51.3
57799;BME280;43626;53.866;30.298;2023-11-18T14:05:50;1031.9;;;1.6;51.2
57799;BME280;43626;53.866;30.298;2023-11-18T14:10:44;1031.9;;;1.5;51.1
57799;BME280;43626;53.866;30.298;2023-11-18T14:15:44;1031.8;;;1.4;50.9
57799;BME280;43626;53.866;30.298;2023-11-18T14:20:44;1031.9;;;1.3;51
57799;BME280;43626;53.866;30.298;2023-11-18T14:26:14;1031.9;;;1.3;51.4
57799;BME280;43626;53.866;30.298;2023-11-18T14:31:06;1031.9;;;1.3;51.3
57799;BME280;43626;53.866;30.298;2023-11-18T14:35:56;1032;;;1.3;51.6
57799;BME280;43626;53.866;30.298;2023-11-18T14:40:45;1032;;;1.3;51.6
57799;BME280;43626;53.866;30.298;2023-11-18T14:45:38;1032;;;1.4;51.8
57799;BME280;43626;53.866;30.298;2023-11-18T14:51:14;1032.1;;;1.5;51.8
57799;BME280;43626;53.866;30.298;2023-11-18T14:55:44;1032.1;;;1.5;51.8
57799;BME280;43626;53.866;30.298;2023-11-18T15:00:42;1032.1;;;1.5;51.9
57799;BME280;43626;53.866;30.298;2023-11-18T15:05:54;1032.1;;;1.5;51.8
57799;BME280;43626;53.866;30.298;2023-11-18T15:10:42;1032;;;1.4;51.8
57799;BME280;43626;53.866;30.298;2023-11-18T15:16:14;1032.1;;;1.4;52
57799;BME280;43626;53.866;30.298;2023-11-18T15:21:06;1032;;;1.5;51.7
57799;BME280;43626;53.866;30.298;2023-11-18T15:25:56;1032;;;1.4;51.7
57799;BME280;43626;53.866;30.298;2023-11-18T15:30:39;1032;;;1.3;51.9
57799;BME280;43626;53.866;30.298;2023-11-18T15:36:03;1032.1;;;1.3;52.2
57799;BME280;43626;53.866;30.298;2023-11-18T15:41:14;1032.1;;;1.4;52
57799;BME280;43626;53.866;30.298;2023-11-18T15:45:46;1032.1;;;1.5;51.9
57799;BME280;43626;53.866;30.298;2023-11-18T15:50:38;1032.1;;;1.5;51.8
57799;BME280;43626;53.866;30.298;2023-11-18T15:55:54;1032.1;;;1.6;51.6
57799;BME280;43626;53.866;30.298;2023-11-18T16:00:37;1032.2;;;1.6;51.4
57799;BME280;43626;53.866;30.298;2023-11-18T16:06:14;1032.2;;;1.6;51.4
57799;BME280;43626;53.866;30.298;2023-11-18T16:10:48;1032.2;;;1.6;51.3
57799;BME280;43626;53.866;30.298;2023-11-18T16:15:37;1032.2;;;1.7;50.9
57799;BME280;43626;53.866;30.298;2023-11-18T16:20:36;1032.3;;;1.7;50.6
57799;BME280;43626;53.866;30.298;2023-11-18T16:25:48;1032.3;;;1.6;50.7
57799;BME280;43626;53.866;30.298;2023-11-18T16:31:14;1032.4;;;1.6;50.9
57799;BME280;43626;53.866;30.298;2023-11-18T16:35:48;1032.5;;;1.7;50.6
57799;BME280;43626;53.866;30.298;2023-11-18T16:40:56;1032.5;;;1.8;50.8
57799;BME280;43626;53.866;30.298;2023-11-18T16:45:52;1032.6;;;1.8;50.8
57799;BME280;43626;53.866;30.298;2023-11-18T16:51:06;1032.6;;;1.9;50.8
57799;BME280;43626;53.866;30.298;2023-11-18T16:56:14;1032.6;;;1.8;50.9
57799;BME280;43626;53.866;30.298;2023-11-18T17:01:04;1032.6;;;1.7;50.9
57799;BME280;43626;53.866;30.298;2023-11-18T17:05:38;1032.6;;;1.7;50.9
57799;BME280;43626;53.866;30.298;2023-11-18T17:10:38;1032.6;;;1.7;50.8
57799;BME280;43626;53.866;30.298;2023-11-18T17:15:48;1032.6;;;1.7;50.8
57799;BME280;43626;53.866;30.298;2023-11-18T17:21:14;1032.6;;;1.6;50.8
57799;BME280;43626;53.866;30.298;2023-11-18T17:25:49;1032.6;;;1.6;50.9
57799;BME280;43626;53.866;30.298;2023-11-18T17:31:00;1032.6;;;1.6;50.9
57799;BME280;43626;53.866;30.298;2023-11-18T17:35:36;1032.7;;;1.6;51
57799;BME280;43626;53.866;30.298;2023-11-18T17:41:12;1032.7;;;1.7;51.3
57799;BME280;43626;53.866;30.298;2023-11-18T17:46:14;1032.7;;;1.7;51
57799;BME280;43626;53.866;30.298;2023-11-18T17:50:38;1032.7;;;1.8;52.4
57799;BME280;43626;53.866;30.298;2023-11-18T17:55:36;1032.8;;;1.8;51.4
57799;BME280;43626;53.866;30.298;2023-11-18T18:00:37;1032.7;;;1.8;51.3
57799;BME280;43626;53.866;30.298;2023-11-18T18:05:44;1032.7;;;1.8;51.3
57799;BME280;43626;53.866;30.298;2023-11-18T18:11:15;1032.8;;;1.8;51.3
57799;BME280;43626;53.866;30.298;2023-11-18T18:15:57;1032.8;;;1.7;51.1
57799;BME280;43626;53.866;30.298;2023-11-18T18:20:56;1032.7;;;1.7;51
57799;BME280;43626;53.866;30.298;2023-11-18T18:25:44;1032.6;;;1.5;51.6
57799;BME280;43626;53.866;30.298;2023-11-18T18:31:06;1032.6;;;1.6;51.2
57799;BME280;43626;53.866;30.298;2023-11-18T18:36:15;1032.6;;;1.5;51.2
57799;BME280;43626;53.866;30.298;2023-11-18T18:41:12;1032.5;;;1.5;51.4
57799;BME280;43626;53.866;30.298;2023-11-18T18:45:36;1032.5;;;1.4;51.4
57799;BME280;43626;53.866;30.298;2023-11-18T18:50:42;1032.5;;;1.4;51.4
57799;BME280;43626;53.866;30.298;2023-11-18T18:55:46;1032.4;;;1.4;51.5
57799;BME280;43626;53.866;30.298;2023-11-18T19:01:09;1032.4;;;1.5;51.6
57799;BME280;43626;53.866;30.298;2023-11-18T19:06:06;1032.4;;;1.5;51.5
57799;BME280;43626;53.866;30.298;2023-11-18T19:10:36;1032.4;;;1.5;51.5
57799;BME280;43626;53.866;30.298;2023-11-18T19:15:54;1032.3;;;1.6;51.3
57799;BME280;43626;53.866;30.298;2023-11-18T19:21:06;1032.3;;;1.5;51.3
57799;BME280;43626;53.866;30.298;2023-11-18T19:26:14;1032.3;;;1.5;51.4
57799;BME280;43626;53.866;30.298;2023-11-18T19:30:48;1032.3;;;1.5;51.4
57799;BME280;43626;53.866;30.298;2023-11-18T19:35:57;1032.3;;;1.4;51.3
57799;BME280;43626;53.866;30.298;2023-11-18T19:40:43;1032.3;;;1.5;51.5
57799;BME280;43626;53.866;30.298;2023-11-18T19:45:56;1032.3;;;1.4;51.5
57799;BME280;43626;53.866;30.298;2023-11-18T19:51:07;1032.3;;;1.4;51.6
57799;BME280;43626;53.866;30.298;2023-11-18T19:55:38;1032.3;;;1.5;51.6
57799;BME280;43626;53.866;30.298;2023-11-18T20:00:44;1032.3;;;1.5;51.8
57799;BME280;43626;53.866;30.298;2023-11-18T20:05:55;1032.3;;;1.6;51.7
57799;BME280;43626;53.866;30.298;2023-11-18T20:11:06;1032.3;;;1.5;51.5
57799;BME280;43626;53.866;30.298;2023-11-18T20:16:15;1032.3;;;1.5;51.4
57799;BME280;43626;53.866;30.298;2023-11-18T20:20:56;1032.3;;;1.4;51.5
57799;BME280;43626;53.866;30.298;2023-11-18T20:25:39;1032.3;;;1.4;51.3
57799;BME280;43626;53.866;30.298;2023-11-18T20:30:37;1032.3;;;1.4;51.1
57799;BME280;43626;53.866;30.298;2023-11-18T20:36:07;1032.4;;;1.5;50.7
57799;BME280;43626;53.866;30.298;2023-11-18T20:41:15;1032.4;;;1.5;50.8
57799;BME280;43626;53.866;30.298;2023-11-18T20:45:47;1032.3;;;1.5;50.9
57799;BME280;43626;53.866;30.298;2023-11-18T20:50:45;1032.4;;;1.5;51
57799;BME280;43626;53.866;30.298;2023-11-18T20:56:03;1032.3;;;1.5;51
57799;BME280;43626;53.866;30.298;2023-11-18T21:01:09;1032.3;;;1.5;51
57799;BME280;43626;53.866;30.298;2023-11-18T21:06:07;1032.2;;;1.5;51
57799;BME280;43626;53.866;30.298;2023-11-18T21:10:45;1032.2;;;1.5;51
57799;BME280;43626;53.866;30.298;2023-11-18T21:15:55;1032.2;;;1.5;50.8
57799;BME280;43626;53.866;30.298;2023-11-18T21:20:37;1032.2;;;1.5;50.6
57799;BME280;43626;53.866;30.298;2023-11-18T21:26:15;1032.2;;;1.4;50.4
57799;BME280;43626;53.866;30.298;2023-11-18T21:31:07;1032.2;;;1.4;50.4
57799;BME280;43626;53.866;30.298;2023-11-18T21:35:43;1032.2;;;1.4;50.4
57799;BME280;43626;53.866;30.298;2023-11-18T21:40:45;1032.1;;;1.4;50.2
57799;BME280;43626;53.866;30.298;2023-11-18T21:46:03;1032.1;;;1.3;50.5
57799;BME280;43626;53.866;30.298;2023-11-18T21:51:15;1032;;;1.3;50.5
57799;BME280;43626;53.866;30.298;2023-11-18T21:55:39;1032.1;;;1.3;50.5
57799;BME280;43626;53.866;30.298;2023-11-18T22:00:39;1032.1;;;1.3;50.6
57799;BME280;43626;53.866;30.298;2023-11-18T22:05:37;1032;;;1.3;50.5
57799;BME280;43626;53.866;30.298;2023-11-18T22:10:37;1031.9;;;1.1;50.6
57799;BME280;43626;53.866;30.298;2023-11-18T22:16:15;1031.9;;;1.1;50.8
57799;BME280;43626;53.866;30.298;2023-11-18T22:21:05;1031.9;;;1.1;50.6
57799;BME280;43626;53.866;30.298;2023-11-18T22:26:03;1031.9;;;1.1;50.5
57799;BME280;43626;53.866;30.298;2023-11-18T22:30:39;1031.9;;;1.1;50.6
57799;BME280;43626;53.866;30.298;2023-11-18T22:36:03;1031.8;;;1.1;50.4
57799;BME280;43626;53.866;30.298;2023-11-18T22:41:15;1031.9;;;1.1;50.4
57799;BME280;43626;53.866;30.298;2023-11-18T22:45:39;1031.9;;;1.2;50.4
57799;BME280;43626;53.866;30.298;2023-11-18T22:50:39;1031.9;;;1.2;50.1
57799;BME280;43626;53.866;30.298;2023-11-18T22:55:37;1031.8;;;1.2;50.2
57799;BME280;43626;53.866;30.298;2023-11-18T23:00:39;1031.8;;;1.3;50.1
57799;BME280;43626;53.866;30.298;2023-11-18T23:06:13;1031.9;;;1.3;50
57799;BME280;43626;53.866;30.298;2023-11-18T23:11:07;1031.9;;;1.3;49.9
57799;BME280;43626;53.866;30.298;2023-11-18T23:16:03;1031.9;;;1.3;49.7
57799;BME280;43626;53.866;30.298;2023-11-18T23:20:45;1031.9;;;1.2;49.3
57799;BME280;43626;53.866;30.298;2023-11-18T23:26:03;1031.9;;;1.2;49.4
57799;BME280;43626;53.866;30.298;2023-11-18T23:31:17;1031.8;;;1.1;49.5
57799;BME280;43626;53.866;30.298;2023-11-18T23:35:37;1031.8;;;1.2;49.3
57799;BME280;43626;53.866;30.298;2023-11-18T23:40:37;1031.8;;;1.2;49.6
57799;BME280;43626;53.866;30.298;2023-11-18T23:45:37;1031.8;;;1.2;49.6
57799;BME280;43626;53.866;30.298;2023-11-18T23:50:47;1031.9;;;1.3;49.6
57799;BME280;43626;53.866;30.298;2023-11-18T23:56:17;1031.9;;;1.2;49.5
